Flight Track Log - Related Links

Times and Time Zones

All times are in EDT time to prevent confusion due to time zone crossing. See the N147SW flight status page for this flight to view local times or setup timezone preferences in your user account.

Time Position Orientation Groundspeed Altitude Reporting Facility
EDT Latitude Longitude Course Direction KTS MPH feet Rate Location/Type
Sun 01:38:06 PM 24.8808 -81.7072 346° North 383 441 13,500  Level Miami Center
Sun 01:39:00 PM 25.1663 -81.9244 346° North  Level Estimated
Sun 01:39:06 PM 24.9733 -81.6881 11° North 347 399 15,800  Level Miami Center
Sun 01:40:00 PM 25.2680 -81.9520 346° North  Level Estimated
Sun 01:40:06 PM 25.0764 -81.7242 342° North 334 384 18,800  Level Miami Center
Sun 01:41:00 PM 25.3697 -81.9797 346° North  Level Estimated
Sun 01:41:06 PM 25.1603 -81.7781 330° Northwest 333 383 20,800  Level Miami Center
Sun 01:42:00 PM 25.4713 -82.0074 346° North  Level Estimated
Sun 01:42:06 PM 25.2544 -81.8344 332° Northwest 352 405 22,000  Level Miami Center
Sun 01:43:06 PM 25.3525 -81.8983 330° Northwest 383 441 22,000  Level Miami Center
Sun 01:44:06 PM 25.4489 -81.9531 333° Northwest 415 478 22,000  Level Miami Center
Sun 01:45:06 PM 25.5528 -82.0217 329° Northwest 432 497 22,000  Level Miami Center
Sun 01:46:06 PM 25.6633 -82.0864 332° Northwest 437 503 22,000  Level Miami Center
Sun 01:47:06 PM 25.7714 -82.1556 330° Northwest 437 503 22,000  Level Miami Center
Sun 01:48:06 PM 25.8817 -82.2250 330° Northwest 442 509 22,000  Level Miami Center
Sun 01:49:06 PM 25.9942 -82.2925 332° Northwest 447 514 22,000  Level Miami Center
Sun 01:50:06 PM 26.1000 -82.3597 330° Northwest 453 521 22,000  Level Miami Center
Sun 01:51:06 PM 26.2147 -82.4158 336° Northwest 448 516 22,000  Level Miami Center
Sun 01:52:06 PM 26.3319 -82.4631 340° North 437 503 22,000  Level Miami Center
Sun 01:53:06 PM 26.4489 -82.5175 337° Northwest 437 503 22,000 -350 Level Miami Center
Sun 01:54:06 PM 26.5681 -82.5672 340° North 450 518 21,300 -850 Descending Miami Center
Sun 01:55:06 PM 26.6889 -82.6219 338° Northwest 460 529 20,300 -1,300 Descending Miami Center
Sun 01:56:06 PM 26.8100 -82.6719 340° North 465 535 18,700 -1,750 Descending Miami Center
Sun 01:57:06 PM 26.9342 -82.6992 349° North 459 528 16,800 -2,000 Descending Miami Center
Sun 01:58:06 PM 27.0522 -82.7261 349° North 446 513 14,700 -1,900 Descending Miami Center
Sun 01:59:06 PM 27.1656 -82.7550 347° North 434 499 13,000 -850 Descending Miami Center
Sun 02:00:06 PM 27.2731 -82.7817 348° North 419 482 13,000 -750 Level Miami Center
Sun 02:01:06 PM 27.3856 -82.7897 356° North 406 467 11,500 -1,750 Descending Miami Center
Sun 02:02:06 PM 27.4769 -82.7944 357° North 369 425 9,500 -2,000 Descending Miami Center
Sun 02:03:06 PM 27.5603 -82.7989 357° North 327 376 7,500 -2,000 Descending Miami Center
Sun 02:04:06 PM 27.6439 -82.7983 360° North 301 346 5,500 -2,000 Descending Miami Center
Sun 02:05:06 PM 27.7233 -82.7908 North 289 333 3,500 -1,597 Descending Miami Center
Sun 02:06:10 PM 27.8167 -82.7667 13° North 279 321 2,200 -726 Descending Tampa TRACON
Sun 02:07:10 PM 27.8833 -82.7333 24° Northeast 277 319 2,000 -500 Descending Tampa TRACON
Sun 02:08:10 PM 27.9500 -82.7167 12° North 199 229 1,200 -800 Descending Tampa TRACON
Sun 02:10:00 PM 27.9100 -82.6875 187° South  Level Estimated
Sun 02:17:00 PM 27.9100 -82.6875 341° North  Level Estimated
Sun 02:18:00 PM 27.9100 -82.6875 180° South  Level Estimated

Login

Don't have an account? Register now (free) for customized features, flight alerts, and more!